createdAt,value
2022-09-11T00:00:18.090Z,83.02
2022-09-11T00:02:48.529Z,82.48
2022-09-11T00:05:18.859Z,81.37
2022-09-11T00:07:49.834Z,82.92
2022-09-11T00:10:20.353Z,82.13
2022-09-11T00:12:51.097Z,82.44
2022-09-11T00:15:21.501Z,83.93
2022-09-11T00:17:51.877Z,84.11
2022-09-11T00:20:22.754Z,83.47
2022-09-11T00:22:54.821Z,84.08
2022-09-11T00:25:25.238Z,84.69
2022-09-11T00:27:56.076Z,83.65
2022-09-11T00:30:26.523Z,83.26
2022-09-11T00:32:57.747Z,85.55
2022-09-11T00:35:28.279Z,85.05
2022-09-11T00:37:58.687Z,85.36
2022-09-11T00:40:29.119Z,84.88
2022-09-11T00:42:59.827Z,84.57
2022-09-11T00:45:30.595Z,84.86
2022-09-11T00:48:01.884Z,84.44
2022-09-11T00:50:33.979Z,84.89
2022-09-11T00:53:11.344Z,84.82
2022-09-11T00:55:46.431Z,84.17
2022-09-11T00:58:22.476Z,84.28
2022-09-11T01:00:54.381Z,83.27
2022-09-11T01:03:28.178Z,82.77
2022-09-11T01:06:00.225Z,83.20
2022-09-11T01:08:34.314Z,82.22
2022-09-11T01:11:45.510Z,85.19
2022-09-11T01:14:40.068Z,83.99
2022-09-11T01:17:30.144Z,84.12
2022-09-11T01:20:11.495Z,85.51
2022-09-11T01:22:48.266Z,85.04
2022-09-11T01:25:40.323Z,84.70
2022-09-11T01:28:45.404Z,83.47
2022-09-11T01:31:23.541Z,84.40
2022-09-11T01:34:02.023Z,84.63
2022-09-11T01:36:43.987Z,84.86
2022-09-11T01:39:20.337Z,85.42
2022-09-11T01:41:56.894Z,85.39
2022-09-11T01:44:42.773Z,85.29
2022-09-11T01:47:14.988Z,85.24
2022-09-11T01:50:07.530Z,84.96
2022-09-11T01:52:47.047Z,85.25
2022-09-11T01:55:46.068Z,84.57
2022-09-11T01:58:33.529Z,85.21
2022-09-11T02:01:11.719Z,86.48
2022-09-11T02:03:47.906Z,85.16
2022-09-11T02:06:28.172Z,85.63
2022-09-11T02:09:07.702Z,85.46
2022-09-11T02:11:43.908Z,86.06
2022-09-11T02:14:26.008Z,86.58
2022-09-11T02:17:19.566Z,85.80
2022-09-11T02:19:50.595Z,85.88
2022-09-11T02:22:22.356Z,85.13
2022-09-11T02:24:53.548Z,86.08
2022-09-11T02:27:28.615Z,85.26
2022-09-11T02:30:00.329Z,85.83
2022-09-11T02:32:37.908Z,86.14
2022-09-11T02:35:09.090Z,87.24
2022-09-11T02:37:51.861Z,87.24
2022-09-11T02:40:59.714Z,87.79
2022-09-11T02:43:59.272Z,87.61
2022-09-11T02:46:42.875Z,88.19
2022-09-11T02:49:56.118Z,88.86
2022-09-11T02:52:32.503Z,88.62
2022-09-11T02:55:14.754Z,88.75
2022-09-11T02:58:30.632Z,88.44
2022-09-11T03:01:04.006Z,87.75
2022-09-11T03:03:46.695Z,89.31
2022-09-11T03:06:25.909Z,89.44
2022-09-11T03:08:57.055Z,89.61
2022-09-11T03:11:27.687Z,89.57
2022-09-11T03:14:00.039Z,89.86
2022-09-11T03:16:30.795Z,90.16
2022-09-11T03:19:01.893Z,89.20
2022-09-11T03:21:34.072Z,89.01
2022-09-11T03:24:05.245Z,89.51
2022-09-11T03:26:38.837Z,89.48
2022-09-11T03:29:09.879Z,89.85
2022-09-11T03:31:40.369Z,91.81
2022-09-11T03:34:11.785Z,90.61
2022-09-11T03:36:43.257Z,91.34
2022-09-11T03:39:14.182Z,91.42
2022-09-11T03:41:44.689Z,91.77
2022-09-11T03:44:15.240Z,90.03
2022-09-11T03:46:47.002Z,90.32
2022-09-11T03:49:17.625Z,92.59
2022-09-11T03:51:49.100Z,91.82
2022-09-11T03:54:19.623Z,92.28
2022-09-11T03:56:50.225Z,91.39
2022-09-11T03:59:21.752Z,90.20
2022-09-11T04:01:53.782Z,90.77
2022-09-11T04:04:24.607Z,91.09
2022-09-11T04:06:55.082Z,90.52
2022-09-11T04:09:26.250Z,91.86
2022-09-11T04:11:56.953Z,92.07
2022-09-11T04:14:30.506Z,91.29
2022-09-11T04:17:01.852Z,90.75
2022-09-11T04:19:32.631Z,90.41
2022-09-11T04:22:03.292Z,92.22
2022-09-11T04:24:36.650Z,91.54
2022-09-11T04:27:06.927Z,90.71
2022-09-11T04:29:37.358Z,90.77
2022-09-11T04:32:12.863Z,90.90
2022-09-11T04:34:43.689Z,90.58
2022-09-11T04:37:13.967Z,90.96
2022-09-11T04:39:45.325Z,91.10
2022-09-11T04:42:18.452Z,91.09
2022-09-11T04:44:48.963Z,91.10
2022-09-11T04:47:19.797Z,91.11
2022-09-11T04:49:50.994Z,91.33
2022-09-11T04:52:22.101Z,91.76
2022-09-11T04:54:52.571Z,91.33
2022-09-11T04:57:23.020Z,91.78
2022-09-11T04:59:54.159Z,91.69
2022-09-11T05:02:24.971Z,91.41
2022-09-11T05:04:57.333Z,91.40
2022-09-11T05:07:27.979Z,91.46
2022-09-11T05:09:59.058Z,91.04
2022-09-11T05:12:30.802Z,91.99
2022-09-11T05:15:01.939Z,93.26
2022-09-11T05:17:34.588Z,93.42
2022-09-11T05:20:11.682Z,90.87
2022-09-11T05:22:42.425Z,93.29
2022-09-11T05:25:15.286Z,91.63
2022-09-11T05:27:46.611Z,91.09
2022-09-11T05:30:16.597Z,91.07
2022-09-11T05:32:46.687Z,92.36
2022-09-11T05:35:18.360Z,93.01
2022-09-11T05:37:48.373Z,92.83
2022-09-11T05:40:18.916Z,92.87
2022-09-11T05:42:49.419Z,92.63
2022-09-11T05:45:20.214Z,93.42
2022-09-11T05:47:54.206Z,94.05
2022-09-11T05:50:27.159Z,94.13
2022-09-11T05:52:57.503Z,94.28
2022-09-11T05:55:28.177Z,93.12
2022-09-11T05:57:59.398Z,93.44
2022-09-11T06:00:31.911Z,94.02
2022-09-11T06:03:02.396Z,93.88
2022-09-11T06:05:32.894Z,95.08
2022-09-11T06:08:06.192Z,94.44
2022-09-11T06:10:38.170Z,95.12
2022-09-11T06:13:09.235Z,95.11
2022-09-11T06:15:49.560Z,94.88
2022-09-11T06:18:20.311Z,95.08
2022-09-11T06:21:03.259Z,95.15
2022-09-11T06:23:43.222Z,95.23
2022-09-11T06:26:16.881Z,95.22
2022-09-11T06:28:49.314Z,95.45
2022-09-11T06:31:23.566Z,95.21
2022-09-11T06:33:56.260Z,95.96
2022-09-11T06:36:28.726Z,95.02
2022-09-11T06:39:01.275Z,94.82
2022-09-11T06:41:32.124Z,95.31
2022-09-11T06:44:11.320Z,95.62
2022-09-11T06:46:42.981Z,95.32
2022-09-11T06:49:15.752Z,95.67
2022-09-11T06:52:04.592Z,96.33
2022-09-11T06:54:36.143Z,95.47
2022-09-11T06:57:12.336Z,95.48
2022-09-11T06:59:43.831Z,94.94
2022-09-11T07:02:14.434Z,95.30
2022-09-11T07:04:44.941Z,95.49
2022-09-11T07:07:16.163Z,95.69
2022-09-11T07:09:46.497Z,95.19
2022-09-11T07:12:17.306Z,95.73
2022-09-11T07:14:48.738Z,95.27
2022-09-11T07:17:20.829Z,95.10
2022-09-11T07:19:53.703Z,95.40
2022-09-11T07:22:24.196Z,95.90
2022-09-11T07:24:55.922Z,94.92
2022-09-11T07:27:26.527Z,95.72
2022-09-11T07:29:57.216Z,95.91
2022-09-11T07:32:28.825Z,95.69
2022-09-11T07:34:59.220Z,96.15
2022-09-11T07:37:29.908Z,95.49
2022-09-11T07:40:01.208Z,95.49
2022-09-11T07:42:35.254Z,95.88
2022-09-11T07:45:05.907Z,95.37
2022-09-11T07:47:37.433Z,96.26
2022-09-11T07:50:08.305Z,96.52
2022-09-11T07:52:39.400Z,96.42
2022-09-11T07:55:10.420Z,95.47
2022-09-11T07:57:40.871Z,95.38
2022-09-11T08:00:14.108Z,96.60
2022-09-11T08:02:50.956Z,96.09
2022-09-11T08:05:31.770Z,95.33
2022-09-11T08:08:01.967Z,95.81
2022-09-11T08:10:33.331Z,96.62
2022-09-11T08:13:09.430Z,95.66
2022-09-11T08:15:49.234Z,95.81
2022-09-11T08:18:22.172Z,96.06
2022-09-11T08:20:52.886Z,95.21
2022-09-11T08:23:23.562Z,95.64
2022-09-11T08:25:55.101Z,95.42
2022-09-11T08:28:25.651Z,95.53
2022-09-11T08:31:00.143Z,95.17
2022-09-11T08:33:31.830Z,95.24
2022-09-11T08:36:04.306Z,95.09
2022-09-11T08:38:36.174Z,94.82
2022-09-11T08:41:14.647Z,94.94
2022-09-11T08:43:53.031Z,95.15
2022-09-11T08:46:27.455Z,94.72
2022-09-11T08:49:12.309Z,95.09
2022-09-11T08:51:43.765Z,95.27
2022-09-11T08:54:28.877Z,94.50
2022-09-11T08:57:14.072Z,94.67
2022-09-11T09:00:03.597Z,94.64
2022-09-11T09:02:56.267Z,94.76
2022-09-11T09:05:44.628Z,95.07
2022-09-11T09:08:36.488Z,94.76
2022-09-11T09:11:38.791Z,94.40
2022-09-11T09:14:15.955Z,94.70
2022-09-11T09:17:31.825Z,95.75
2022-09-11T09:20:10.577Z,95.27
2022-09-11T09:23:04.228Z,95.08
2022-09-11T09:25:41.650Z,95.29
2022-09-11T09:28:30.621Z,93.90
2022-09-11T09:31:05.213Z,94.21
2022-09-11T09:33:45.751Z,94.58
2022-09-11T09:36:18.779Z,93.94
2022-09-11T09:38:50.237Z,94.45
2022-09-11T09:41:26.542Z,94.97
2022-09-11T09:44:05.993Z,95.30
2022-09-11T09:46:51.197Z,95.70
2022-09-11T09:49:36.423Z,95.81
2022-09-11T09:52:28.210Z,96.70
2022-09-11T09:55:04.209Z,96.10
2022-09-11T09:57:41.231Z,96.35
2022-09-11T10:00:11.388Z,95.57
2022-09-11T10:02:46.772Z,96.00
2022-09-11T10:05:33.952Z,95.61
2022-09-11T10:08:06.958Z,95.19
2022-09-11T10:10:39.512Z,95.31
2022-09-11T10:13:26.686Z,96.11
2022-09-11T10:16:05.539Z,95.45
2022-09-11T10:18:48.064Z,95.74
2022-09-11T10:21:39.391Z,96.58
2022-09-11T10:24:27.593Z,96.05
2022-09-11T10:26:59.854Z,95.28
2022-09-11T10:29:32.007Z,94.84
2022-09-11T10:32:04.519Z,95.41
2022-09-11T10:34:39.260Z,95.57
2022-09-11T10:37:32.827Z,95.88
2022-09-11T10:40:21.931Z,95.16
2022-09-11T10:42:54.042Z,95.57
2022-09-11T10:45:25.889Z,94.61
2022-09-11T10:47:56.398Z,93.44
2022-09-11T10:50:28.119Z,93.84
2022-09-11T10:53:19.945Z,93.46
2022-09-11T10:56:01.492Z,94.12
2022-09-11T10:58:36.243Z,94.72
2022-09-11T11:01:06.741Z,93.98
2022-09-11T11:03:37.850Z,94.05
2022-09-11T11:06:27.121Z,93.36
2022-09-11T11:09:18.943Z,94.14
2022-09-11T11:12:16.337Z,92.44
2022-09-11T11:15:07.816Z,92.08
2022-09-11T11:18:02.610Z,93.55
2022-09-11T11:21:01.875Z,93.13
2022-09-11T11:24:04.322Z,91.79
2022-09-11T11:26:47.838Z,92.10
2022-09-11T11:29:19.707Z,90.97
2022-09-11T11:32:22.859Z,90.74
2022-09-11T11:35:19.662Z,91.18
2022-09-11T11:38:04.794Z,90.85
2022-09-11T11:40:48.405Z,89.45
2022-09-11T11:43:26.727Z,89.36
2022-09-11T11:46:06.409Z,89.71
2022-09-11T11:48:46.381Z,88.49
2022-09-11T11:51:22.428Z,89.03
2022-09-11T11:54:21.796Z,88.63
2022-09-11T11:57:03.230Z,87.12
2022-09-11T11:59:43.000Z,87.52
2022-09-11T12:02:13.391Z,86.91
2022-09-11T12:04:58.086Z,85.77
2022-09-11T12:07:40.553Z,86.67
2022-09-11T12:10:28.613Z,84.58
2022-09-11T12:13:03.446Z,84.79
2022-09-11T12:15:35.970Z,85.48
2022-09-11T12:18:25.606Z,85.22
2022-09-11T12:21:24.528Z,84.19
2022-09-11T12:24:01.193Z,83.88
2022-09-11T12:26:33.097Z,84.93
2022-09-11T12:29:21.457Z,83.67
2022-09-11T12:31:51.812Z,82.28
2022-09-11T12:34:47.975Z,82.41
2022-09-11T12:37:34.999Z,82.35
2022-09-11T12:40:32.205Z,81.17
2022-09-11T12:43:37.155Z,80.82
2022-09-11T12:46:13.073Z,80.42
2022-09-11T12:48:56.281Z,79.30
2022-09-11T12:51:39.009Z,81.00
2022-09-11T12:54:26.769Z,79.82
2022-09-11T12:57:16.760Z,79.95
2022-09-11T12:59:55.136Z,77.63
2022-09-11T13:02:37.401Z,77.50
2022-09-11T13:05:20.828Z,76.06
2022-09-11T13:07:56.656Z,76.73
2022-09-11T13:10:35.175Z,74.11
2022-09-11T13:13:48.240Z,74.92
2022-09-11T13:16:30.327Z,74.92
2022-09-11T13:19:23.726Z,73.35
2022-09-11T13:21:54.834Z,73.75
2022-09-11T13:24:36.233Z,74.16
2022-09-11T13:27:17.967Z,72.24
2022-09-11T13:29:49.828Z,70.05
2022-09-11T13:32:20.990Z,69.95
2022-09-11T13:35:00.000Z,72.07
2022-09-11T13:37:39.310Z,73.27
2022-09-11T13:40:21.433Z,72.65
2022-09-11T13:42:51.968Z,73.24
2022-09-11T13:45:23.556Z,74.32
2022-09-11T13:47:55.984Z,71.86
2022-09-11T13:50:26.639Z,73.34
2022-09-11T13:52:57.270Z,75.60
2022-09-11T13:55:28.900Z,73.78
2022-09-11T13:58:04.473Z,73.19
2022-09-11T14:00:41.125Z,71.44
2022-09-11T14:03:35.173Z,71.56
2022-09-11T14:06:12.709Z,72.73
2022-09-11T14:08:53.076Z,74.16
2022-09-11T14:11:30.997Z,70.75
2022-09-11T14:14:13.393Z,68.99
2022-09-11T14:16:51.043Z,70.18
2022-09-11T14:19:25.823Z,69.21
2022-09-11T14:21:56.304Z,65.66
2022-09-11T14:24:38.559Z,70.39
2022-09-11T14:27:34.818Z,68.75
2022-09-11T14:30:26.394Z,66.52
2022-09-11T14:33:18.229Z,62.76
2022-09-11T14:35:50.126Z,63.68
2022-09-11T14:38:23.361Z,61.61
2022-09-11T14:41:01.928Z,62.54
2022-09-11T14:43:34.710Z,62.04
2022-09-11T14:46:05.772Z,62.43
2022-09-11T14:48:37.117Z,62.80
2022-09-11T14:51:11.413Z,61.80
2022-09-11T14:53:44.561Z,61.82
2022-09-11T14:56:15.112Z,61.27
2022-09-11T14:58:45.576Z,59.40
2022-09-11T15:01:15.583Z,61.32
2022-09-11T15:03:46.096Z,60.25
2022-09-11T15:06:21.775Z,59.66
2022-09-11T15:08:52.087Z,60.19
2022-09-11T15:11:22.508Z,57.20
2022-09-11T15:14:14.454Z,59.00
2022-09-11T15:16:44.247Z,57.57
2022-09-11T15:19:16.641Z,56.91
2022-09-11T15:21:47.236Z,56.97
2022-09-11T15:24:18.377Z,56.23
2022-09-11T15:26:48.983Z,59.41
2022-09-11T15:29:19.455Z,56.50
2022-09-11T15:31:50.891Z,54.44
2022-09-11T15:34:23.634Z,52.95
2022-09-11T15:36:54.152Z,55.07
2022-09-11T15:39:25.763Z,53.00
2022-09-11T15:41:57.808Z,54.55
2022-09-11T15:44:30.005Z,54.78
2022-09-11T15:47:00.961Z,53.95
2022-09-11T15:49:32.964Z,55.26
2022-09-11T15:52:04.285Z,56.73
2022-09-11T15:54:34.750Z,52.91
2022-09-11T15:57:06.035Z,54.41
2022-09-11T15:59:36.550Z,54.09
2022-09-11T16:02:06.987Z,53.99
2022-09-11T16:04:37.601Z,52.85
2022-09-11T16:07:08.194Z,54.96
2022-09-11T16:09:38.765Z,54.21
2022-09-11T16:12:09.634Z,53.57
2022-09-11T16:14:40.040Z,53.54
2022-09-11T16:17:13.166Z,52.47
2022-09-11T16:19:43.632Z,52.54
2022-09-11T16:22:14.129Z,52.14
2022-09-11T16:24:44.807Z,53.55
2022-09-11T16:27:15.208Z,52.48
2022-09-11T16:32:40.524Z,51.13
2022-09-11T16:35:14.619Z,52.26
2022-09-11T16:37:45.486Z,54.53
2022-09-11T16:40:16.323Z,51.63
2022-09-11T16:42:47.138Z,50.83
2022-09-11T16:45:17.613Z,51.11
2022-09-11T16:47:48.454Z,50.93
2022-09-11T16:50:19.078Z,51.18
2022-09-11T16:52:49.690Z,50.82
2022-09-11T16:55:21.549Z,48.50
2022-09-11T16:57:51.965Z,48.34
2022-09-11T17:00:23.015Z,48.79
2022-09-11T17:02:53.635Z,48.73
2022-09-11T17:05:24.017Z,47.04
2022-09-11T17:07:54.449Z,44.22
2022-09-11T17:10:25.203Z,46.78
2022-09-11T17:12:58.483Z,47.14
2022-09-11T17:15:29.626Z,47.19
2022-09-11T17:18:00.088Z,47.22
2022-09-11T17:20:30.529Z,48.64
2022-09-11T17:23:01.328Z,47.25
2022-09-11T17:25:33.089Z,47.76
2022-09-11T17:28:03.801Z,46.94
2022-09-11T17:30:34.648Z,47.85
2022-09-11T17:33:05.306Z,50.00
2022-09-11T17:35:36.455Z,52.25
2022-09-11T17:38:07.070Z,50.65
2022-09-11T17:40:37.968Z,53.16
2022-09-11T17:43:09.216Z,53.24
2022-09-11T17:45:39.676Z,53.93
2022-09-11T17:48:10.104Z,51.68
2022-09-11T17:50:40.509Z,47.57
2022-09-11T17:53:11.000Z,44.98
2022-09-11T17:55:41.714Z,49.83
2022-09-11T17:58:12.047Z,47.56
2022-09-11T18:00:42.514Z,44.79
2022-09-11T18:03:13.018Z,44.42
2022-09-11T18:05:45.077Z,44.16
2022-09-11T18:08:15.697Z,47.29
2022-09-11T18:11:01.016Z,45.25
2022-09-11T18:13:33.160Z,45.85
2022-09-11T18:16:09.605Z,45.26
2022-09-11T18:18:41.841Z,42.31
2022-09-11T18:21:13.630Z,42.47
2022-09-11T18:23:46.274Z,41.44
2022-09-11T18:26:29.837Z,45.66
2022-09-11T18:29:02.703Z,46.39
2022-09-11T18:31:34.843Z,47.24
2022-09-11T18:34:05.424Z,49.52
2022-09-11T18:36:35.979Z,48.92
2022-09-11T18:39:07.215Z,52.93
2022-09-11T18:41:38.291Z,55.11
2022-09-11T18:44:17.443Z,56.50
2022-09-11T18:46:53.482Z,56.65
2022-09-11T18:49:24.468Z,52.00
2022-09-11T18:51:55.067Z,46.92
2022-09-11T18:54:26.864Z,42.27
2022-09-11T18:56:57.310Z,42.14
2022-09-11T18:59:27.973Z,52.91
2022-09-11T19:02:00.292Z,52.61
2022-09-11T19:04:30.910Z,50.81
2022-09-11T19:07:01.365Z,47.36
2022-09-11T19:09:31.985Z,44.01
2022-09-11T19:12:04.788Z,44.43
2022-09-11T19:14:37.184Z,46.63
2022-09-11T19:17:07.709Z,52.10
2022-09-11T19:19:38.136Z,54.65
2022-09-11T19:22:08.496Z,54.15
2022-09-11T19:24:39.223Z,55.34
2022-09-11T19:27:09.560Z,56.17
2022-09-11T19:29:39.857Z,54.52
2022-09-11T19:32:10.194Z,54.58
2022-09-11T19:34:47.005Z,55.02
2022-09-11T19:37:19.822Z,52.47
2022-09-11T19:39:52.079Z,54.98
2022-09-11T19:42:22.447Z,56.45
2022-09-11T19:44:56.180Z,57.51
2022-09-11T19:47:27.758Z,55.63
2022-09-11T19:50:00.224Z,54.88
2022-09-11T19:52:33.058Z,56.83
2022-09-11T19:55:05.156Z,57.92
2022-09-11T19:57:35.607Z,58.51
2022-09-11T20:00:06.526Z,58.37
2022-09-11T20:02:36.981Z,57.37
2022-09-11T20:05:07.795Z,58.03
2022-09-11T20:07:39.184Z,59.17
2022-09-11T20:10:10.110Z,55.57
2022-09-11T20:12:40.667Z,55.06
2022-09-11T20:15:11.872Z,57.15
2022-09-11T20:17:45.611Z,58.60
2022-09-11T20:20:16.252Z,59.39
2022-09-11T20:22:46.625Z,59.21
2022-09-11T20:25:17.215Z,60.38
2022-09-11T20:27:47.922Z,61.73
2022-09-11T20:30:18.850Z,60.11
2022-09-11T20:32:49.343Z,60.68
2022-09-11T20:35:20.033Z,58.95
2022-09-11T20:37:50.477Z,56.81
2022-09-11T20:40:21.874Z,56.36
2022-09-11T20:42:52.260Z,55.54
2022-09-11T20:45:22.557Z,56.44
2022-09-11T20:47:54.476Z,58.01
2022-09-11T20:50:25.604Z,56.22
2022-09-11T20:52:55.870Z,59.15
2022-09-11T20:55:26.331Z,54.93
2022-09-11T20:57:56.895Z,54.01
2022-09-11T21:00:27.458Z,57.31
2022-09-11T21:02:58.166Z,59.39
2022-09-11T21:05:28.918Z,57.00
2022-09-11T21:07:59.363Z,57.34
2022-09-11T21:10:29.897Z,56.24
2022-09-11T21:13:00.122Z,55.07
2022-09-11T21:15:30.777Z,52.73
2022-09-11T21:18:01.133Z,53.66
2022-09-11T21:20:31.058Z,55.17
2022-09-11T21:23:01.091Z,53.18
2022-09-11T21:25:31.714Z,56.79
2022-09-11T21:28:02.086Z,55.49
2022-09-11T21:30:32.545Z,55.20
2022-09-11T21:33:02.488Z,57.25
2022-09-11T21:35:32.452Z,55.54
2022-09-11T21:38:02.899Z,56.47
2022-09-11T21:40:33.373Z,56.85
2022-09-11T21:43:03.837Z,56.71
2022-09-11T21:45:34.229Z,58.46
2022-09-11T21:48:06.902Z,58.26
2022-09-11T21:50:38.800Z,59.28
2022-09-11T21:53:11.866Z,60.10
2022-09-11T21:55:47.254Z,60.62
2022-09-11T21:58:23.136Z,60.65
2022-09-11T22:00:53.677Z,61.93
2022-09-11T22:03:28.592Z,60.43
2022-09-11T22:05:59.588Z,62.26
2022-09-11T22:08:30.122Z,62.36
2022-09-11T22:11:06.878Z,62.43
2022-09-11T22:13:39.721Z,62.78
2022-09-11T22:16:17.141Z,64.76
2022-09-11T22:18:53.480Z,65.06
2022-09-11T22:21:24.405Z,64.00
2022-09-11T22:23:56.328Z,65.10
2022-09-11T22:26:26.927Z,65.65
2022-09-11T22:28:59.159Z,66.28
2022-09-11T22:31:30.434Z,67.19
2022-09-11T22:34:01.606Z,66.83
2022-09-11T22:36:33.779Z,67.96
2022-09-11T22:39:06.618Z,68.03
2022-09-11T22:41:37.234Z,68.75
2022-09-11T22:44:08.022Z,69.58
2022-09-11T22:46:39.136Z,70.22
2022-09-11T22:49:11.208Z,71.16
2022-09-11T22:51:41.896Z,71.76
2022-09-11T22:54:15.124Z,72.57
2022-09-11T22:56:46.079Z,73.05
2022-09-11T22:59:16.763Z,73.63
2022-09-11T23:01:47.480Z,73.95
2022-09-11T23:04:18.165Z,74.40
2022-09-11T23:07:06.676Z,74.06
2022-09-11T23:09:40.128Z,74.83
2022-09-11T23:12:10.986Z,75.35
2022-09-11T23:14:41.645Z,75.26
2022-09-11T23:17:12.209Z,75.53
2022-09-11T23:19:42.238Z,74.57
2022-09-11T23:22:12.568Z,76.55
2022-09-11T23:24:42.569Z,75.44
2022-09-11T23:27:12.834Z,76.63
2022-09-11T23:29:43.512Z,76.55
2022-09-11T23:32:14.619Z,76.73
2022-09-11T23:34:45.287Z,76.55
2022-09-11T23:37:15.690Z,76.95
2022-09-11T23:39:46.387Z,78.97
2022-09-11T23:42:17.650Z,77.97
2022-09-11T23:44:48.213Z,78.84
2022-09-11T23:47:19.663Z,76.82
2022-09-11T23:49:50.684Z,76.53
2022-09-11T23:52:21.259Z,76.10
2022-09-11T23:54:51.197Z,76.27
2022-09-11T23:57:21.764Z,76.85
2022-09-11T23:59:51.549Z,76.10
